sensor_id;sensor_type;location;lat;lon;timestamp;pressure;altitude;pressure_sealevel;temperature;humidity
71504;BME280;59323;50.874;7.028;2023-02-17T00:00:35;101860.50;;;8.83;98.58
71504;BME280;59323;50.874;7.028;2023-02-17T00:03:00;101849.97;;;8.82;98.78
71504;BME280;59323;50.874;7.028;2023-02-17T00:05:26;101846.47;;;8.81;99.15
71504;BME280;59323;50.874;7.028;2023-02-17T00:07:52;101846.28;;;8.86;98.28
71504;BME280;59323;50.874;7.028;2023-02-17T00:10:17;101838.16;;;8.86;98.70
71504;BME280;59323;50.874;7.028;2023-02-17T00:12:43;101845.78;;;8.93;98.95
71504;BME280;59323;50.874;7.028;2023-02-17T00:15:08;101837.97;;;8.92;98.17
71504;BME280;59323;50.874;7.028;2023-02-17T00:17:34;101843.22;;;8.97;98.24
71504;BME280;59323;50.874;7.028;2023-02-17T00:19:59;101849.44;;;8.97;98.33
71504;BME280;59323;50.874;7.028;2023-02-17T00:22:25;101833.16;;;8.97;98.21
71504;BME280;59323;50.874;7.028;2023-02-17T00:24:50;101838.59;;;8.97;97.94
71504;BME280;59323;50.874;7.028;2023-02-17T00:27:15;101838.41;;;9.02;97.95
71504;BME280;59323;50.874;7.028;2023-02-17T00:29:41;101834.72;;;9.07;97.71
71504;BME280;59323;50.874;7.028;2023-02-17T00:32:07;101830.25;;;9.11;97.45
71504;BME280;59323;50.874;7.028;2023-02-17T00:34:34;101832.97;;;9.11;97.46
71504;BME280;59323;50.874;7.028;2023-02-17T00:37:00;101829.13;;;9.12;97.59
71504;BME280;59323;50.874;7.028;2023-02-17T00:39:26;101824.84;;;9.11;97.85
71504;BME280;59323;50.874;7.028;2023-02-17T00:41:51;101823.72;;;9.12;97.50
71504;BME280;59323;50.874;7.028;2023-02-17T00:44:19;101824.03;;;9.10;97.74
71504;BME280;59323;50.874;7.028;2023-02-17T00:46:45;101822.72;;;9.16;97.20
71504;BME280;59323;50.874;7.028;2023-02-17T00:49:36;101825.78;;;9.15;97.50
71504;BME280;59323;50.874;7.028;2023-02-17T00:52:02;101814.47;;;9.13;97.58
71504;BME280;59323;50.874;7.028;2023-02-17T00:54:28;101830.88;;;9.16;97.76
71504;BME280;59323;50.874;7.028;2023-02-17T00:56:53;101830.06;;;9.16;97.80
71504;BME280;59323;50.874;7.028;2023-02-17T00:59:19;101825.91;;;9.18;98.12
71504;BME280;59323;50.874;7.028;2023-02-17T01:01:44;101832.44;;;9.17;97.75
71504;BME280;59323;50.874;7.028;2023-02-17T01:04:10;101827.50;;;9.19;98.10
71504;BME280;59323;50.874;7.028;2023-02-17T01:06:36;101832.44;;;9.17;98.07
71504;BME280;59323;50.874;7.028;2023-02-17T01:09:04;101827.03;;;9.17;97.85
71504;BME280;59323;50.874;7.028;2023-02-17T01:11:32;101821.59;;;9.17;97.45
71504;BME280;59323;50.874;7.028;2023-02-17T01:13:58;101827.16;;;9.21;97.94
71504;BME280;59323;50.874;7.028;2023-02-17T01:16:27;101823.53;;;9.17;98.00
71504;BME280;59323;50.874;7.028;2023-02-17T01:18:53;101811.41;;;9.14;98.10
71504;BME280;59323;50.874;7.028;2023-02-17T01:21:21;101799.13;;;9.17;97.75
71504;BME280;59323;50.874;7.028;2023-02-17T01:23:51;101804.06;;;9.15;97.92
71504;BME280;59323;50.874;7.028;2023-02-17T01:26:19;101803.56;;;9.21;97.87
71504;BME280;59323;50.874;7.028;2023-02-17T01:28:45;101800.03;;;9.21;97.70
71504;BME280;59323;50.874;7.028;2023-02-17T01:31:11;101794.94;;;9.19;97.85
71504;BME280;59323;50.874;7.028;2023-02-17T01:33:37;101793.22;;;9.15;97.72
71504;BME280;59323;50.874;7.028;2023-02-17T01:36:05;101788.28;;;9.17;97.94
71504;BME280;59323;50.874;7.028;2023-02-17T01:38:31;101782.84;;;9.17;97.84
71504;BME280;59323;50.874;7.028;2023-02-17T01:40:57;101781.91;;;9.13;97.86
71504;BME280;59323;50.874;7.028;2023-02-17T01:43:23;101782.06;;;9.08;97.88
71504;BME280;59323;50.874;7.028;2023-02-17T01:45:54;101779.38;;;9.08;98.43
71504;BME280;59323;50.874;7.028;2023-02-17T01:48:25;101777.78;;;9.07;98.63
71504;BME280;59323;50.874;7.028;2023-02-17T01:50:56;101773.16;;;9.07;98.43
71504;BME280;59323;50.874;7.028;2023-02-17T01:53:29;101775.84;;;9.07;98.92
71504;BME280;59323;50.874;7.028;2023-02-17T01:55:57;101768.53;;;9.08;98.82
71504;BME280;59323;50.874;7.028;2023-02-17T01:58:23;101761.50;;;9.07;98.35
71504;BME280;59323;50.874;7.028;2023-02-17T02:00:51;101769.31;;;9.08;98.36
71504;BME280;59323;50.874;7.028;2023-02-17T02:03:17;101771.22;;;9.08;98.40
71504;BME280;59323;50.874;7.028;2023-02-17T02:05:43;101759.44;;;9.12;98.61
71504;BME280;59323;50.874;7.028;2023-02-17T02:08:10;101760.22;;;9.13;99.16
71504;BME280;59323;50.874;7.028;2023-02-17T02:10:36;101750.50;;;9.12;98.60
71504;BME280;59323;50.874;7.028;2023-02-17T02:13:02;101756.31;;;9.23;97.80
71504;BME280;59323;50.874;7.028;2023-02-17T02:16:16;101757.00;;;9.19;98.13
71504;BME280;59323;50.874;7.028;2023-02-17T02:18:39;101765.44;;;9.18;98.32
71504;BME280;59323;50.874;7.028;2023-02-17T02:34:22;101746.94;;;9.20;98.66
71504;BME280;59323;50.874;7.028;2023-02-17T02:36:59;101737.28;;;9.31;97.61
71504;BME280;59323;50.874;7.028;2023-02-17T02:39:33;101745.56;;;9.35;97.67
71504;BME280;59323;50.874;7.028;2023-02-17T02:42:05;101743.56;;;9.44;97.57
71504;BME280;59323;50.874;7.028;2023-02-17T02:44:32;101746.19;;;9.52;97.08
71504;BME280;59323;50.874;7.028;2023-02-17T02:47:06;101736.41;;;9.60;96.86
71504;BME280;59323;50.874;7.028;2023-02-17T02:49:34;101736.53;;;9.64;96.21
71504;BME280;59323;50.874;7.028;2023-02-17T02:54:51;101726.59;;;9.68;95.60
71504;BME280;59323;50.874;7.028;2023-02-17T02:57:44;101721.41;;;9.75;95.40
71504;BME280;59323;50.874;7.028;2023-02-17T03:00:37;101724.28;;;9.78;95.20
71504;BME280;59323;50.874;7.028;2023-02-17T03:11:26;101719.69;;;9.91;93.45
71504;BME280;59323;50.874;7.028;2023-02-17T03:14:03;101701.00;;;9.90;93.24
71504;BME280;59323;50.874;7.028;2023-02-17T03:16:29;101713.47;;;9.91;93.79
71504;BME280;59323;50.874;7.028;2023-02-17T03:18:55;101707.69;;;9.92;93.66
71504;BME280;59323;50.874;7.028;2023-02-17T03:21:20;101713.38;;;9.99;93.58
71504;BME280;59323;50.874;7.028;2023-02-17T03:23:46;101704.75;;;9.97;93.25
71504;BME280;59323;50.874;7.028;2023-02-17T03:26:11;101705.44;;;9.94;93.33
71504;BME280;59323;50.874;7.028;2023-02-17T03:28:36;101707.47;;;9.97;93.14
71504;BME280;59323;50.874;7.028;2023-02-17T03:31:02;101712.78;;;9.94;93.35
71504;BME280;59323;50.874;7.028;2023-02-17T03:33:28;101706.69;;;9.97;93.23
71504;BME280;59323;50.874;7.028;2023-02-17T03:35:53;101702.84;;;9.98;93.22
71504;BME280;59323;50.874;7.028;2023-02-17T03:38:18;101698.66;;;10.00;92.58
71504;BME280;59323;50.874;7.028;2023-02-17T03:40:43;101694.25;;;9.96;92.92
71504;BME280;59323;50.874;7.028;2023-02-17T03:43:09;101686.88;;;9.96;92.65
71504;BME280;59323;50.874;7.028;2023-02-17T03:45:35;101691.53;;;10.08;92.22
71504;BME280;59323;50.874;7.028;2023-02-17T03:48:01;101683.63;;;10.03;92.13
71504;BME280;59323;50.874;7.028;2023-02-17T03:50:26;101695.06;;;10.08;92.19
71504;BME280;59323;50.874;7.028;2023-02-17T03:52:51;101697.78;;;10.08;91.66
71504;BME280;59323;50.874;7.028;2023-02-17T03:55:17;101695.50;;;10.10;91.36
71504;BME280;59323;50.874;7.028;2023-02-17T03:57:42;101698.44;;;10.05;91.92
71504;BME280;59323;50.874;7.028;2023-02-17T04:00:08;101701.41;;;10.12;91.29
71504;BME280;59323;50.874;7.028;2023-02-17T04:02:34;101701.84;;;10.14;91.08
71504;BME280;59323;50.874;7.028;2023-02-17T04:04:59;101696.88;;;10.16;90.71
71504;BME280;59323;50.874;7.028;2023-02-17T04:07:24;101698.47;;;10.17;90.34
71504;BME280;59323;50.874;7.028;2023-02-17T04:09:50;101694.31;;;10.20;90.75
71504;BME280;59323;50.874;7.028;2023-02-17T04:12:15;101690.13;;;10.23;90.15
71504;BME280;59323;50.874;7.028;2023-02-17T04:14:40;101694.41;;;10.24;89.72
71504;BME280;59323;50.874;7.028;2023-02-17T04:17:06;101705.28;;;10.24;89.60
71504;BME280;59323;50.874;7.028;2023-02-17T04:19:31;101710.72;;;10.24;89.79
71504;BME280;59323;50.874;7.028;2023-02-17T04:21:56;101709.94;;;10.23;89.76
71504;BME280;59323;50.874;7.028;2023-02-17T04:24:22;101711.25;;;10.17;90.43
71504;BME280;59323;50.874;7.028;2023-02-17T04:26:47;101712.03;;;10.17;90.49
71504;BME280;59323;50.874;7.028;2023-02-17T04:29:12;101702.75;;;10.18;90.13
71504;BME280;59323;50.874;7.028;2023-02-17T04:31:38;101710.44;;;10.16;90.06
71504;BME280;59323;50.874;7.028;2023-02-17T04:34:03;101696.75;;;10.13;90.07
71504;BME280;59323;50.874;7.028;2023-02-17T04:36:29;101699.13;;;10.14;90.32
71504;BME280;59323;50.874;7.028;2023-02-17T04:38:54;101696.41;;;10.14;90.17
71504;BME280;59323;50.874;7.028;2023-02-17T04:41:19;101695.97;;;10.12;89.83
71504;BME280;59323;50.874;7.028;2023-02-17T04:43:45;101704.34;;;10.20;89.59
71504;BME280;59323;50.874;7.028;2023-02-17T04:46:10;101711.06;;;10.34;88.94
71504;BME280;59323;50.874;7.028;2023-02-17T04:48:36;101708.00;;;10.36;87.99
71504;BME280;59323;50.874;7.028;2023-02-17T04:51:02;101709.25;;;10.38;88.38
71504;BME280;59323;50.874;7.028;2023-02-17T04:53:27;101701.59;;;10.40;88.29
71504;BME280;59323;50.874;7.028;2023-02-17T04:55:53;101705.09;;;10.41;87.74
71504;BME280;59323;50.874;7.028;2023-02-17T04:58:19;101698.19;;;10.43;88.32
71504;BME280;59323;50.874;7.028;2023-02-17T05:00:49;101698.19;;;10.43;87.92
71504;BME280;59323;50.874;7.028;2023-02-17T05:03:15;101691.50;;;10.41;87.99
71504;BME280;59323;50.874;7.028;2023-02-17T05:05:40;101687.88;;;10.49;87.52
71504;BME280;59323;50.874;7.028;2023-02-17T05:08:05;101694.47;;;10.48;87.57
71504;BME280;59323;50.874;7.028;2023-02-17T05:10:31;101710.09;;;10.51;87.01
71504;BME280;59323;50.874;7.028;2023-02-17T05:12:56;101704.41;;;10.44;87.12
71504;BME280;59323;50.874;7.028;2023-02-17T05:15:22;101704.63;;;10.39;87.05
71504;BME280;59323;50.874;7.028;2023-02-17T05:17:47;101699.28;;;10.30;87.49
71504;BME280;59323;50.874;7.028;2023-02-17T05:20:12;101700.31;;;10.38;87.62
71504;BME280;59323;50.874;7.028;2023-02-17T05:22:38;101690.91;;;10.35;87.46
71504;BME280;59323;50.874;7.028;2023-02-17T05:25:04;101707.78;;;10.29;87.98
71504;BME280;59323;50.874;7.028;2023-02-17T05:27:30;101702.22;;;10.25;87.63
71504;BME280;59323;50.874;7.028;2023-02-17T05:29:55;101706.41;;;10.23;87.81
71504;BME280;59323;50.874;7.028;2023-02-17T05:32:21;101705.28;;;10.24;87.58
71504;BME280;59323;50.874;7.028;2023-02-17T05:34:46;101707.88;;;10.20;88.02
71504;BME280;59323;50.874;7.028;2023-02-17T05:37:12;101700.38;;;10.17;88.42
71504;BME280;59323;50.874;7.028;2023-02-17T05:39:37;101702.97;;;10.13;88.10
71504;BME280;59323;50.874;7.028;2023-02-17T05:42:03;101696.97;;;10.08;88.58
71504;BME280;59323;50.874;7.028;2023-02-17T05:44:28;101704.22;;;10.04;88.38
71504;BME280;59323;50.874;7.028;2023-02-17T05:46:54;101696.72;;;10.01;89.01
71504;BME280;59323;50.874;7.028;2023-02-17T05:49:20;101681.91;;;9.98;88.44
71504;BME280;59323;50.874;7.028;2023-02-17T05:51:45;101680.78;;;9.99;88.91
71504;BME280;59323;50.874;7.028;2023-02-17T05:54:10;101674.56;;;9.99;88.86
71504;BME280;59323;50.874;7.028;2023-02-17T05:56:36;101680.66;;;9.96;88.71
71504;BME280;59323;50.874;7.028;2023-02-17T05:59:01;101684.16;;;9.96;88.96
71504;BME280;59323;50.874;7.028;2023-02-17T06:01:27;101683.72;;;9.94;89.15
71504;BME280;59323;50.874;7.028;2023-02-17T06:03:52;101687.22;;;9.95;88.83
71504;BME280;59323;50.874;7.028;2023-02-17T06:06:18;101678.41;;;9.98;88.63
71504;BME280;59323;50.874;7.028;2023-02-17T06:08:43;101676.03;;;9.96;88.77
71504;BME280;59323;50.874;7.028;2023-02-17T06:11:09;101669.47;;;9.97;88.62
71504;BME280;59323;50.874;7.028;2023-02-17T06:13:35;101663.69;;;9.99;88.51
71504;BME280;59323;50.874;7.028;2023-02-17T06:16:00;101669.81;;;10.08;88.00
71504;BME280;59323;50.874;7.028;2023-02-17T06:18:25;101681.81;;;10.07;88.43
71504;BME280;59323;50.874;7.028;2023-02-17T06:20:55;101679.78;;;10.04;88.37
71504;BME280;59323;50.874;7.028;2023-02-17T06:23:22;101688.38;;;10.06;88.17
71504;BME280;59323;50.874;7.028;2023-02-17T06:25:48;101686.00;;;10.04;88.20
71504;BME280;59323;50.874;7.028;2023-02-17T06:28:13;101681.34;;;10.05;88.76
71504;BME280;59323;50.874;7.028;2023-02-17T06:30:38;101693.81;;;10.06;88.28
71504;BME280;59323;50.874;7.028;2023-02-17T06:33:04;101695.06;;;10.08;88.88
71504;BME280;59323;50.874;7.028;2023-02-17T06:35:29;101688.38;;;10.06;88.43
71504;BME280;59323;50.874;7.028;2023-02-17T06:37:54;101682.38;;;10.00;88.48
71504;BME280;59323;50.874;7.028;2023-02-17T06:40:20;101687.91;;;10.04;88.65
71504;BME280;59323;50.874;7.028;2023-02-17T06:42:45;101683.16;;;10.01;89.14
71504;BME280;59323;50.874;7.028;2023-02-17T06:45:10;101685.88;;;10.01;88.90
71504;BME280;59323;50.874;7.028;2023-02-17T06:47:36;101682.81;;;10.02;89.07
71504;BME280;59323;50.874;7.028;2023-02-17T06:50:01;101685.09;;;10.00;88.99
71504;BME280;59323;50.874;7.028;2023-02-17T06:52:27;101685.53;;;10.02;89.47
71504;BME280;59323;50.874;7.028;2023-02-17T06:54:52;101676.47;;;9.98;89.26
71504;BME280;59323;50.874;7.028;2023-02-17T06:57:18;101680.31;;;9.97;89.45
71504;BME280;59323;50.874;7.028;2023-02-17T06:59:43;101684.63;;;9.98;89.59
71504;BME280;59323;50.874;7.028;2023-02-17T07:02:10;101695.81;;;9.97;89.58
71504;BME280;59323;50.874;7.028;2023-02-17T07:04:37;101692.31;;;9.96;89.93
71504;BME280;59323;50.874;7.028;2023-02-17T07:07:02;101690.41;;;9.97;90.37
71504;BME280;59323;50.874;7.028;2023-02-17T07:09:27;101688.69;;;9.92;90.33
71504;BME280;59323;50.874;7.028;2023-02-17T07:11:53;101687.47;;;10.02;90.61
71504;BME280;59323;50.874;7.028;2023-02-17T07:14:18;101691.44;;;10.04;90.96
71504;BME280;59323;50.874;7.028;2023-02-17T07:16:43;101696.63;;;10.09;91.20
71504;BME280;59323;50.874;7.028;2023-02-17T07:19:09;101689.97;;;10.19;91.40
71504;BME280;59323;50.874;7.028;2023-02-17T07:21:34;101684.22;;;10.21;91.74
71504;BME280;59323;50.874;7.028;2023-02-17T07:24:00;101668.72;;;10.21;91.48
71504;BME280;59323;50.874;7.028;2023-02-17T07:26:25;101666.00;;;10.21;91.27
71504;BME280;59323;50.874;7.028;2023-02-17T07:28:50;101666.31;;;10.20;91.05
71504;BME280;59323;50.874;7.028;2023-02-17T07:31:16;101674.94;;;10.22;91.63
71504;BME280;59323;50.874;7.028;2023-02-17T07:33:42;101679.59;;;10.21;91.95
71504;BME280;59323;50.874;7.028;2023-02-17T07:36:10;101680.25;;;10.18;91.97
71504;BME280;59323;50.874;7.028;2023-02-17T07:38:36;101669.13;;;10.11;92.75
71504;BME280;59323;50.874;7.028;2023-02-17T07:41:04;101688.72;;;10.16;92.73
71504;BME280;59323;50.874;7.028;2023-02-17T07:43:29;101682.03;;;10.14;92.91
71504;BME280;59323;50.874;7.028;2023-02-17T07:45:55;101687.13;;;10.15;93.26
71504;BME280;59323;50.874;7.028;2023-02-17T07:48:20;101676.16;;;10.12;93.49
71504;BME280;59323;50.874;7.028;2023-02-17T07:50:45;101675.47;;;10.15;93.61
71504;BME280;59323;50.874;7.028;2023-02-17T07:53:10;101676.72;;;10.17;93.28
71504;BME280;59323;50.874;7.028;2023-02-17T07:55:36;101680.03;;;10.23;94.09
71504;BME280;59323;50.874;7.028;2023-02-17T07:58:01;101677.31;;;10.23;93.87
71504;BME280;59323;50.874;7.028;2023-02-17T08:00:26;101676.19;;;10.24;94.20
71504;BME280;59323;50.874;7.028;2023-02-17T08:02:52;101682.09;;;10.26;94.01
71504;BME280;59323;50.874;7.028;2023-02-17T08:05:17;101677.22;;;10.32;94.39
71504;BME280;59323;50.874;7.028;2023-02-17T08:07:42;101683.09;;;10.34;94.95
71504;BME280;59323;50.874;7.028;2023-02-17T08:10:10;101677.94;;;10.41;94.89
71504;BME280;59323;50.874;7.028;2023-02-17T08:12:55;101680.31;;;10.42;94.53
71504;BME280;59323;50.874;7.028;2023-02-17T08:15:39;101684.72;;;10.47;95.08
71504;BME280;59323;50.874;7.028;2023-02-17T08:18:05;101683.59;;;10.48;94.38
71504;BME280;59323;50.874;7.028;2023-02-17T08:20:31;101684.03;;;10.50;95.04
71504;BME280;59323;50.874;7.028;2023-02-17T08:22:56;101686.41;;;10.52;95.30
71504;BME280;59323;50.874;7.028;2023-02-17T08:25:21;101679.06;;;10.52;95.33
71504;BME280;59323;50.874;7.028;2023-02-17T08:27:47;101688.44;;;10.55;95.29
71504;BME280;59323;50.874;7.028;2023-02-17T08:30:12;101692.53;;;10.61;95.37
71504;BME280;59323;50.874;7.028;2023-02-17T08:32:38;101699.44;;;10.70;96.01
71504;BME280;59323;50.874;7.028;2023-02-17T08:35:06;101698.41;;;10.75;96.01
71504;BME280;59323;50.874;7.028;2023-02-17T08:37:32;101698.84;;;10.89;96.17
71504;BME280;59323;50.874;7.028;2023-02-17T08:39:57;101692.03;;;10.95;96.10
71504;BME280;59323;50.874;7.028;2023-02-17T08:42:25;101699.84;;;11.09;95.85
71504;BME280;59323;50.874;7.028;2023-02-17T08:44:50;101701.75;;;11.21;95.39
71504;BME280;59323;50.874;7.028;2023-02-17T08:47:15;101703.88;;;11.27;95.30
71504;BME280;59323;50.874;7.028;2023-02-17T08:49:41;101705.31;;;11.37;94.23
71504;BME280;59323;50.874;7.028;2023-02-17T08:52:07;101698.59;;;11.47;94.08
71504;BME280;59323;50.874;7.028;2023-02-17T08:54:32;101696.84;;;11.54;93.83
71504;BME280;59323;50.874;7.028;2023-02-17T08:56:58;101693.44;;;11.57;93.37
71504;BME280;59323;50.874;7.028;2023-02-17T08:59:23;101691.25;;;11.63;93.41
71504;BME280;59323;50.874;7.028;2023-02-17T09:01:49;101691.00;;;11.68;93.53
71504;BME280;59323;50.874;7.028;2023-02-17T09:04:15;101686.34;;;11.68;93.31
71504;BME280;59323;50.874;7.028;2023-02-17T09:06:45;101683.97;;;11.79;93.23
71504;BME280;59323;50.874;7.028;2023-02-17T09:09:13;101681.44;;;11.86;92.18
71504;BME280;59323;50.874;7.028;2023-02-17T09:11:39;101686.63;;;11.91;92.20
71504;BME280;59323;50.874;7.028;2023-02-17T09:14:05;101687.94;;;11.97;92.23
71504;BME280;59323;50.874;7.028;2023-02-17T09:16:30;101689.25;;;12.03;91.32
71504;BME280;59323;50.874;7.028;2023-02-17T09:18:56;101689.09;;;12.12;90.91
71504;BME280;59323;50.874;7.028;2023-02-17T09:21:22;101676.88;;;12.22;90.72
71504;BME280;59323;50.874;7.028;2023-02-17T09:23:48;101686.78;;;12.30;90.22
71504;BME280;59323;50.874;7.028;2023-02-17T09:26:15;101677.13;;;12.32;90.37
71504;BME280;59323;50.874;7.028;2023-02-17T09:28:40;101690.25;;;12.43;89.78
71504;BME280;59323;50.874;7.028;2023-02-17T09:31:18;101688.84;;;12.49;88.79
71504;BME280;59323;50.874;7.028;2023-02-17T09:33:44;101692.78;;;12.51;88.66
71504;BME280;59323;50.874;7.028;2023-02-17T09:36:14;101689.44;;;12.58;88.73
71504;BME280;59323;50.874;7.028;2023-02-17T09:38:40;101694.69;;;12.66;89.29
71504;BME280;59323;50.874;7.028;2023-02-17T09:41:21;101679.78;;;12.80;88.06
71504;BME280;59323;50.874;7.028;2023-02-17T09:43:48;101687.50;;;12.93;87.42
71504;BME280;59323;50.874;7.028;2023-02-17T09:46:37;101685.03;;;13.04;86.67
71504;BME280;59323;50.874;7.028;2023-02-17T09:49:14;101685.00;;;13.20;86.08
71504;BME280;59323;50.874;7.028;2023-02-17T09:51:45;101684.78;;;13.28;85.44
71504;BME280;59323;50.874;7.028;2023-02-17T09:56:44;101688.66;;;13.66;83.53
71504;BME280;59323;50.874;7.028;2023-02-17T09:59:37;101693.53;;;13.76;82.92
71504;BME280;59323;50.874;7.028;2023-02-17T10:02:06;101698.34;;;13.83;82.61
71504;BME280;59323;50.874;7.028;2023-02-17T10:04:38;101697.84;;;14.00;81.36
71504;BME280;59323;50.874;7.028;2023-02-17T10:07:28;101707.09;;;14.15;80.57
71504;BME280;59323;50.874;7.028;2023-02-17T10:12:50;101710.88;;;14.52;78.63
71504;BME280;59323;50.874;7.028;2023-02-17T10:15:22;101693.09;;;14.66;77.58
71504;BME280;59323;50.874;7.028;2023-02-17T10:21:03;101707.94;;;14.91;77.24
71504;BME280;59323;50.874;7.028;2023-02-17T10:23:33;101721.09;;;15.08;76.63
71504;BME280;59323;50.874;7.028;2023-02-17T10:26:14;101714.22;;;15.21;75.50
71504;BME280;59323;50.874;7.028;2023-02-17T10:31:16;101711.34;;;15.41;74.21
71504;BME280;59323;50.874;7.028;2023-02-17T10:34:04;101713.38;;;15.47;74.50
71504;BME280;59323;50.874;7.028;2023-02-17T10:36:55;101716.97;;;15.55;73.83
71504;BME280;59323;50.874;7.028;2023-02-17T10:39:51;101717.53;;;15.64;73.53
71504;BME280;59323;50.874;7.028;2023-02-17T10:44:45;101705.94;;;15.78;72.35
71504;BME280;59323;50.874;7.028;2023-02-17T10:47:10;101702.47;;;15.84;72.31
71504;BME280;59323;50.874;7.028;2023-02-17T10:49:41;101692.00;;;15.94;71.57
71504;BME280;59323;50.874;7.028;2023-02-17T10:52:16;101697.94;;;16.03;71.55
71504;BME280;59323;50.874;7.028;2023-02-17T10:54:49;101694.09;;;16.11;71.45
71504;BME280;59323;50.874;7.028;2023-02-17T10:57:18;101696.16;;;16.21;70.49
71504;BME280;59323;50.874;7.028;2023-02-17T10:59:46;101688.78;;;16.29;70.33
71504;BME280;59323;50.874;7.028;2023-02-17T11:04:46;101689.19;;;16.31;69.87
71504;BME280;59323;50.874;7.028;2023-02-17T11:07:14;101690.38;;;16.30;70.09
71504;BME280;59323;50.874;7.028;2023-02-17T11:09:46;101699.69;;;16.25;70.71
71504;BME280;59323;50.874;7.028;2023-02-17T11:12:21;101699.69;;;16.22;70.19
71504;BME280;59323;50.874;7.028;2023-02-17T11:14:52;101690.56;;;16.10;70.62
71504;BME280;59323;50.874;7.028;2023-02-17T11:19:58;101687.78;;;16.07;70.45
71504;BME280;59323;50.874;7.028;2023-02-17T11:22:38;101682.25;;;16.00;70.94
71504;BME280;59323;50.874;7.028;2023-02-17T11:25:28;101663.78;;;15.93;71.38
71504;BME280;59323;50.874;7.028;2023-02-17T11:27:56;101666.47;;;15.86;71.32
71504;BME280;59323;50.874;7.028;2023-02-17T11:30:22;101663.72;;;15.86;71.29
71504;BME280;59323;50.874;7.028;2023-02-17T11:32:48;101663.31;;;15.84;71.61
71504;BME280;59323;50.874;7.028;2023-02-17T11:35:21;101659.38;;;15.81;71.79
71504;BME280;59323;50.874;7.028;2023-02-17T11:37:47;101660.91;;;15.79;72.22
71504;BME280;59323;50.874;7.028;2023-02-17T11:40:27;101655.06;;;15.80;71.63
71504;BME280;59323;50.874;7.028;2023-02-17T11:43:00;101679.72;;;15.80;72.12
71504;BME280;59323;50.874;7.028;2023-02-17T11:45:48;101673.44;;;15.80;72.07
71504;BME280;59323;50.874;7.028;2023-02-17T11:53:49;101678.50;;;15.74;72.56
71504;BME280;59323;50.874;7.028;2023-02-17T11:56:38;101664.03;;;15.77;72.44
71504;BME280;59323;50.874;7.028;2023-02-17T12:07:45;101643.09;;;15.99;70.56
71504;BME280;59323;50.874;7.028;2023-02-17T12:10:54;101627.00;;;15.98;70.38
71504;BME280;59323;50.874;7.028;2023-02-17T12:21:12;101629.66;;;15.87;71.58
71504;BME280;59323;50.874;7.028;2023-02-17T12:26:49;101623.03;;;15.92;71.23
71504;BME280;59323;50.874;7.028;2023-02-17T12:29:46;101632.16;;;16.06;70.74
71504;BME280;59323;50.874;7.028;2023-02-17T12:32:49;101628.31;;;16.14;70.36
71504;BME280;59323;50.874;7.028;2023-02-17T12:37:50;101598.16;;;16.18;69.12
71504;BME280;59323;50.874;7.028;2023-02-17T12:40:34;101613.84;;;16.17;69.17
71504;BME280;59323;50.874;7.028;2023-02-17T12:43:33;101618.97;;;16.23;69.19
71504;BME280;59323;50.874;7.028;2023-02-17T12:46:05;101624.56;;;16.33;68.86
71504;BME280;59323;50.874;7.028;2023-02-17T12:48:36;101609.28;;;16.36;68.74
71504;BME280;59323;50.874;7.028;2023-02-17T12:51:08;101599.88;;;16.33;69.08
71504;BME280;59323;50.874;7.028;2023-02-17T12:53:52;101594.78;;;16.35;68.99
71504;BME280;59323;50.874;7.028;2023-02-17T12:58:51;101597.19;;;16.44;68.79
71504;BME280;59323;50.874;7.028;2023-02-17T13:01:18;101603.91;;;16.54;68.18
71504;BME280;59323;50.874;7.028;2023-02-17T13:03:46;101569.50;;;16.67;67.88
71504;BME280;59323;50.874;7.028;2023-02-17T13:06:26;101577.38;;;16.72;67.84
71504;BME280;59323;50.874;7.028;2023-02-17T13:08:57;101599.34;;;16.79;67.59
71504;BME280;59323;50.874;7.028;2023-02-17T13:11:33;101576.66;;;16.89;67.42
71504;BME280;59323;50.874;7.028;2023-02-17T13:14:11;101586.13;;;17.02;67.12
71504;BME280;59323;50.874;7.028;2023-02-17T13:16:44;101574.75;;;17.00;67.06
71504;BME280;59323;50.874;7.028;2023-02-17T13:19:11;101587.69;;;17.00;67.15
71504;BME280;59323;50.874;7.028;2023-02-17T13:21:51;101566.91;;;16.99;66.76
71504;BME280;59323;50.874;7.028;2023-02-17T13:24:37;101578.66;;;16.96;66.95
71504;BME280;59323;50.874;7.028;2023-02-17T13:27:30;101583.00;;;17.00;66.47
71504;BME280;59323;50.874;7.028;2023-02-17T13:32:30;101576.31;;;17.01;66.60
71504;BME280;59323;50.874;7.028;2023-02-17T13:35:02;101574.75;;;17.04;66.87
71504;BME280;59323;50.874;7.028;2023-02-17T13:39:59;101586.13;;;16.99;66.80
71504;BME280;59323;50.874;7.028;2023-02-17T13:42:35;101596.31;;;16.91;66.94
71504;BME280;59323;50.874;7.028;2023-02-17T13:45:10;101577.03;;;16.84;67.19
71504;BME280;59323;50.874;7.028;2023-02-17T13:47:38;101582.13;;;16.82;66.89
71504;BME280;59323;50.874;7.028;2023-02-17T13:50:05;101587.59;;;16.78;66.97
71504;BME280;59323;50.874;7.028;2023-02-17T13:52:31;101585.19;;;16.70;67.35
71504;BME280;59323;50.874;7.028;2023-02-17T13:55:02;101589.84;;;16.62;67.43
71504;BME280;59323;50.874;7.028;2023-02-17T13:57:33;101589.03;;;16.55;68.20
71504;BME280;59323;50.874;7.028;2023-02-17T14:00:28;101596.06;;;16.52;68.58
71504;BME280;59323;50.874;7.028;2023-02-17T14:02:58;101593.69;;;16.47;68.66
71504;BME280;59323;50.874;7.028;2023-02-17T14:05:42;101605.38;;;16.37;68.93
71504;BME280;59323;50.874;7.028;2023-02-17T14:10:36;101601.47;;;16.38;69.49
71504;BME280;59323;50.874;7.028;2023-02-17T14:13:02;101608.09;;;16.33;69.82
71504;BME280;59323;50.874;7.028;2023-02-17T14:15:30;101603.00;;;16.32;69.60
71504;BME280;59323;50.874;7.028;2023-02-17T14:17:55;101600.63;;;16.27;69.32
71504;BME280;59323;50.874;7.028;2023-02-17T14:20:32;101610.78;;;16.26;69.74
71504;BME280;59323;50.874;7.028;2023-02-17T14:23:10;101608.00;;;16.23;69.79